createdAt,value
2019-06-10T00:01:37.460Z,16.02
2019-06-10T00:04:42.670Z,15.98
2019-06-10T00:07:48.042Z,15.96
2019-06-10T00:10:53.151Z,15.93
2019-06-10T00:14:02.424Z,15.94
2019-06-10T00:17:07.979Z,16.00
2019-06-10T00:20:14.237Z,15.81
2019-06-10T00:23:21.274Z,15.82
2019-06-10T00:26:26.563Z,15.88
2019-06-10T00:29:31.687Z,15.86
2019-06-10T00:32:36.875Z,15.84
2019-06-10T00:35:42.075Z,15.77
2019-06-10T00:38:47.256Z,15.82
2019-06-10T00:41:52.434Z,15.69
2019-06-10T00:45:01.143Z,15.64
2019-06-10T00:48:17.605Z,15.67
2019-06-10T00:51:13.243Z,15.64
2019-06-10T00:54:18.650Z,15.71
2019-06-10T00:57:24.015Z,15.68
2019-06-10T01:00:31.620Z,15.71
2019-06-10T01:03:36.136Z,15.63
2019-06-10T01:06:42.323Z,15.58
2019-06-10T01:09:47.680Z,15.58
2019-06-10T01:12:52.845Z,15.65
2019-06-10T01:15:58.029Z,15.68
2019-06-10T01:19:03.773Z,15.53
2019-06-10T01:22:11.095Z,15.56
2019-06-10T01:25:17.834Z,15.53
2019-06-10T01:28:23.084Z,15.56
2019-06-10T01:31:28.233Z,15.61
2019-06-10T01:34:33.455Z,15.57
2019-06-10T01:37:38.613Z,15.39
2019-06-10T01:40:43.765Z,15.44
2019-06-10T01:43:51.184Z,15.49
2019-06-10T01:46:55.806Z,15.52
2019-06-10T01:50:01.001Z,15.53
2019-06-10T01:53:07.301Z,15.58
2019-06-10T01:56:14.253Z,15.52
2019-06-10T01:59:21.934Z,15.49
2019-06-10T02:02:26.607Z,15.38
2019-06-10T02:05:31.760Z,15.43
2019-06-10T02:08:36.973Z,15.39
2019-06-10T02:11:42.125Z,15.42
2019-06-10T02:14:47.306Z,15.45
2019-06-10T02:17:52.504Z,15.40
2019-06-10T02:20:57.662Z,15.33
2019-06-10T02:24:02.811Z,15.42
2019-06-10T02:27:08.103Z,15.41
2019-06-10T02:30:26.296Z,15.32
2019-06-10T02:33:27.875Z,15.32
2019-06-10T02:36:31.088Z,15.37
2019-06-10T02:39:38.664Z,15.44
2019-06-10T02:42:43.835Z,15.42
2019-06-10T02:45:49.038Z,15.44
2019-06-10T02:48:54.624Z,15.37
2019-06-10T02:52:03.397Z,15.38
2019-06-10T02:55:08.750Z,15.41
2019-06-10T02:58:15.602Z,15.45
2019-06-10T03:01:23.247Z,15.45
2019-06-10T03:04:32.844Z,15.43
2019-06-10T03:07:35.717Z,15.45
2019-06-10T03:10:44.323Z,15.48
2019-06-10T03:13:48.075Z,15.48
2019-06-10T03:16:56.944Z,15.57
2019-06-10T03:20:02.430Z,15.46
2019-06-10T03:23:07.753Z,15.35
2019-06-10T03:26:12.977Z,15.36
2019-06-10T03:29:18.542Z,15.36
2019-06-10T03:32:32.127Z,15.30
2019-06-10T03:35:32.946Z,15.23
2019-06-10T03:38:37.673Z,15.20
2019-06-10T03:41:42.948Z,15.21
2019-06-10T03:44:48.145Z,15.23
2019-06-10T03:47:53.294Z,15.27
2019-06-10T03:50:58.439Z,15.31
2019-06-10T03:54:03.687Z,15.28
2019-06-10T03:57:11.940Z,15.30
2019-06-10T04:00:17.495Z,15.36
2019-06-10T04:03:24.856Z,15.36
2019-06-10T04:06:33.351Z,15.39
2019-06-10T04:09:36.984Z,15.34
2019-06-10T04:12:43.431Z,15.39
2019-06-10T04:15:48.784Z,15.51
2019-06-10T04:18:54.018Z,15.63
2019-06-10T04:21:59.250Z,15.69
2019-06-10T04:25:04.890Z,15.63
2019-06-10T04:28:12.383Z,15.54
2019-06-10T04:31:18.143Z,15.63
2019-06-10T04:34:26.821Z,15.74
2019-06-10T04:37:32.329Z,15.80
2019-06-10T04:40:37.096Z,15.92
2019-06-10T04:43:43.296Z,15.86
2019-06-10T04:46:48.625Z,16.05
2019-06-10T04:49:53.773Z,15.98
2019-06-10T04:52:58.925Z,15.94
2019-06-10T04:56:04.081Z,15.93
2019-06-10T04:59:09.224Z,15.92
2019-06-10T05:02:14.383Z,15.91
2019-06-10T05:05:19.536Z,16.10
2019-06-10T05:08:26.591Z,17.47
2019-06-10T05:11:33.153Z,17.81
2019-06-10T05:14:38.415Z,17.89
2019-06-10T05:17:43.960Z,18.05
2019-06-10T05:20:57.723Z,18.05
2019-06-10T05:23:56.565Z,17.96
2019-06-10T05:27:02.133Z,17.97
2019-06-10T05:30:08.502Z,18.44
2019-06-10T05:33:14.573Z,19.60
2019-06-10T05:36:20.638Z,21.33
2019-06-10T05:39:27.541Z,21.24
2019-06-10T05:42:35.778Z,20.36
2019-06-10T05:45:39.726Z,19.72
2019-06-10T05:48:44.880Z,19.57
2019-06-10T05:51:52.710Z,19.08
2019-06-10T05:54:57.879Z,18.46
2019-06-10T05:58:03.152Z,18.73
2019-06-10T06:01:08.249Z,19.32
2019-06-10T06:04:13.456Z,20.10
2019-06-10T06:07:18.591Z,20.31
2019-06-10T06:10:25.111Z,19.87
2019-06-10T06:13:34.175Z,19.29
2019-06-10T06:16:38.310Z,19.36
2019-06-10T06:19:43.602Z,18.96
2019-06-10T06:22:48.788Z,18.61
2019-06-10T06:25:54.022Z,18.84
2019-06-10T06:28:59.227Z,18.85
2019-06-10T06:32:04.481Z,19.07
2019-06-10T06:35:09.935Z,19.61
2019-06-10T06:38:15.100Z,19.65
2019-06-10T06:41:22.647Z,19.67
2019-06-10T06:44:27.542Z,19.88
2019-06-10T06:47:35.640Z,19.52
2019-06-10T06:50:57.200Z,19.13
2019-06-10T06:53:52.020Z,19.32
2019-06-10T06:56:53.814Z,19.90
2019-06-10T06:59:59.027Z,18.81
2019-06-10T07:03:04.417Z,18.70
2019-06-10T07:06:13.199Z,19.30
2019-06-10T07:09:18.925Z,19.39
2019-06-10T07:12:25.395Z,19.30
2019-06-10T07:15:45.688Z,19.14
2019-06-10T07:18:50.162Z,19.04
2019-06-10T07:22:08.850Z,19.30
2019-06-10T07:25:06.310Z,19.84
2019-06-10T07:28:08.275Z,19.34
2019-06-10T07:31:23.643Z,18.97
2019-06-10T07:34:22.269Z,18.94
2019-06-10T07:37:27.144Z,19.30
2019-06-10T07:40:33.448Z,20.29
2019-06-10T07:43:42.549Z,20.70
2019-06-10T07:46:46.110Z,21.24
2019-06-10T07:49:52.255Z,20.77
2019-06-10T07:52:58.725Z,21.53
2019-06-10T07:56:03.916Z,20.89
2019-06-10T07:59:09.069Z,20.58
2019-06-10T08:02:14.264Z,21.05
2019-06-10T08:05:19.490Z,22.00
2019-06-10T08:08:24.698Z,21.63
2019-06-10T08:11:29.939Z,21.54
2019-06-10T08:14:35.394Z,21.75
2019-06-10T08:17:42.929Z,21.68
2019-06-10T08:20:48.065Z,22.30
2019-06-10T08:23:54.430Z,22.64
2019-06-10T08:26:59.620Z,22.69
2019-06-10T08:30:21.177Z,22.72
2019-06-10T08:33:13.737Z,22.41
2019-06-10T08:36:19.160Z,21.92
2019-06-10T08:39:24.397Z,21.66
2019-06-10T08:42:29.596Z,21.44
2019-06-10T08:45:34.874Z,21.83
2019-06-10T08:48:41.794Z,22.22
2019-06-10T08:51:49.783Z,22.97
2019-06-10T08:54:54.615Z,23.34
2019-06-10T08:58:02.784Z,23.85
2019-06-10T09:01:07.798Z,23.66
2019-06-10T09:04:13.447Z,23.09
2019-06-10T09:07:18.678Z,22.84
2019-06-10T09:10:24.308Z,22.92
2019-06-10T09:13:29.478Z,22.87
2019-06-10T09:16:34.756Z,22.94
2019-06-10T09:19:41.355Z,22.51
2019-06-10T09:22:50.184Z,22.35
2019-06-10T09:25:57.347Z,23.02
2019-06-10T09:29:02.880Z,23.37
2019-06-10T09:32:07.839Z,23.42
2019-06-10T09:35:15.039Z,22.99
2019-06-10T09:38:22.297Z,22.89
2019-06-10T09:41:39.356Z,22.91
2019-06-10T09:44:34.117Z,22.05
2019-06-10T09:47:44.470Z,22.56
2019-06-10T09:50:51.362Z,23.21
2019-06-10T09:54:03.135Z,23.25
2019-06-10T09:57:02.415Z,23.19
2019-06-10T10:00:12.306Z,23.48
2019-06-10T10:03:16.824Z,23.68
2019-06-10T10:06:23.707Z,23.45
2019-06-10T10:09:29.020Z,23.31
2019-06-10T10:12:34.150Z,23.38
2019-06-10T10:15:41.746Z,23.54
2019-06-10T10:18:50.433Z,22.93
2019-06-10T10:21:58.221Z,23.02
2019-06-10T10:25:02.985Z,23.96
2019-06-10T10:28:07.701Z,23.93
2019-06-10T10:31:13.991Z,24.03
2019-06-10T10:34:19.185Z,23.65
2019-06-10T10:37:24.409Z,23.11
2019-06-10T10:40:32.364Z,23.04
2019-06-10T10:43:37.755Z,22.96
2019-06-10T10:46:43.249Z,22.89
2019-06-10T10:49:49.109Z,23.16
2019-06-10T10:52:54.251Z,23.07
2019-06-10T10:56:02.024Z,22.43
2019-06-10T10:59:06.417Z,22.15
2019-06-10T11:02:12.681Z,22.05
2019-06-10T11:05:36.054Z,22.06
2019-06-10T11:08:44.207Z,22.12
2019-06-10T11:11:52.242Z,22.05
2019-06-10T11:15:01.394Z,22.37
2019-06-10T11:18:05.114Z,22.63
2019-06-10T11:21:10.262Z,22.95
2019-06-10T11:24:29.672Z,22.88
2019-06-10T11:27:22.781Z,23.46
2019-06-10T11:30:28.438Z,24.69
2019-06-10T11:33:34.899Z,24.53
2019-06-10T11:36:42.414Z,24.37
2019-06-10T11:39:48.064Z,24.75
2019-06-10T11:42:58.032Z,24.17
2019-06-10T11:46:06.850Z,24.20
2019-06-10T11:49:08.254Z,24.98
2019-06-10T11:52:13.481Z,25.34
2019-06-10T11:55:19.445Z,25.52
2019-06-10T11:58:25.749Z,25.94
2019-06-10T12:01:31.026Z,24.99
2019-06-10T12:04:36.197Z,24.61
2019-06-10T12:07:42.730Z,24.58
2019-06-10T12:10:49.021Z,24.24
2019-06-10T12:14:00.948Z,23.85
2019-06-10T12:17:21.672Z,23.22
2019-06-10T12:20:13.255Z,22.85
2019-06-10T12:23:17.948Z,22.26
2019-06-10T12:26:24.265Z,22.49
2019-06-10T12:29:29.425Z,22.68
2019-06-10T12:32:34.648Z,22.57
2019-06-10T12:35:42.149Z,22.40
2019-06-10T12:38:46.696Z,22.80
2019-06-10T12:41:54.635Z,22.98
2019-06-10T12:44:59.488Z,23.45
2019-06-10T12:48:06.924Z,23.75
2019-06-10T12:51:13.441Z,24.83
2019-06-10T12:54:19.287Z,24.38
2019-06-10T12:57:24.540Z,24.89
2019-06-10T13:00:33.285Z,25.35
2019-06-10T13:03:38.828Z,25.35
2019-06-10T13:06:46.454Z,25.28
2019-06-10T13:09:55.537Z,25.55
2019-06-10T13:13:06.687Z,26.56
2019-06-10T13:16:10.144Z,25.94
2019-06-10T13:19:14.697Z,25.54
2019-06-10T13:22:19.865Z,25.64
2019-06-10T13:25:25.095Z,25.54
2019-06-10T13:28:32.482Z,25.17
2019-06-10T13:31:37.329Z,25.27
2019-06-10T13:34:42.625Z,24.83
2019-06-10T13:37:48.764Z,25.03
2019-06-10T13:40:54.034Z,24.90
2019-06-10T13:43:59.959Z,24.29
2019-06-10T13:47:08.463Z,24.48
2019-06-10T13:50:14.467Z,24.18
2019-06-10T13:53:19.741Z,24.36
2019-06-10T13:56:43.211Z,24.29
2019-06-10T13:59:31.847Z,23.69
2019-06-10T14:02:36.984Z,23.46
2019-06-10T14:05:44.813Z,23.68
2019-06-10T14:08:49.146Z,23.17
2019-06-10T14:11:54.371Z,22.83
2019-06-10T14:15:02.549Z,23.17
2019-06-10T14:18:07.410Z,23.10
2019-06-10T14:21:18.179Z,22.54
2019-06-10T14:24:22.773Z,22.34
2019-06-10T14:27:27.459Z,22.35
2019-06-10T14:30:32.652Z,22.19
2019-06-10T14:33:38.353Z,22.12
2019-06-10T14:36:43.560Z,22.13
2019-06-10T14:39:48.710Z,22.24
2019-06-10T14:42:55.006Z,22.42
2019-06-10T14:46:00.280Z,22.39
2019-06-10T14:49:06.725Z,22.30
2019-06-10T14:52:13.899Z,22.15
2019-06-10T14:55:19.154Z,22.20
2019-06-10T14:58:24.349Z,22.59
2019-06-10T15:01:32.048Z,22.54
2019-06-10T15:04:36.461Z,22.28
2019-06-10T15:07:42.330Z,22.06
2019-06-10T15:10:47.744Z,22.15
2019-06-10T15:13:52.857Z,21.99
2019-06-10T15:16:58.050Z,22.23
2019-06-10T15:20:03.808Z,22.13
2019-06-10T15:23:09.178Z,21.40
2019-06-10T15:26:16.130Z,21.40
2019-06-10T15:29:23.421Z,21.38
2019-06-10T15:32:34.499Z,21.15
2019-06-10T15:35:35.063Z,21.30
2019-06-10T15:38:40.284Z,21.23
2019-06-10T15:41:45.504Z,21.19
2019-06-10T15:44:53.499Z,21.11
2019-06-10T15:47:57.608Z,21.13
2019-06-10T15:51:03.215Z,21.01
2019-06-10T15:54:08.565Z,20.80
2019-06-10T15:57:29.609Z,20.67
2019-06-10T16:00:24.281Z,20.52
2019-06-10T16:03:28.179Z,20.23
2019-06-10T16:06:33.354Z,20.20
2019-06-10T16:09:38.450Z,20.32
2019-06-10T16:12:43.870Z,20.29
2019-06-10T16:15:49.141Z,20.00
2019-06-10T16:18:54.310Z,20.10
2019-06-10T16:21:59.455Z,20.15
2019-06-10T16:25:04.836Z,20.32
2019-06-10T16:28:10.008Z,20.50
2019-06-10T16:31:16.613Z,20.73
2019-06-10T16:34:25.036Z,20.70
2019-06-10T16:37:28.682Z,20.60
2019-06-10T16:40:33.853Z,20.28
2019-06-10T16:43:39.047Z,20.29
2019-06-10T16:46:44.142Z,20.31
2019-06-10T16:49:49.323Z,20.27
2019-06-10T16:52:54.510Z,20.17
2019-06-10T16:55:59.710Z,20.35
2019-06-10T16:59:04.880Z,20.24
2019-06-10T17:02:10.015Z,20.13
2019-06-10T17:05:15.401Z,20.17
2019-06-10T17:08:23.249Z,20.44
2019-06-10T17:11:29.387Z,20.40
2019-06-10T17:14:34.488Z,20.44
2019-06-10T17:17:39.640Z,20.48
2019-06-10T17:20:44.802Z,20.63
2019-06-10T17:23:52.473Z,20.46
2019-06-10T17:26:56.869Z,20.28
2019-06-10T17:30:02.901Z,20.00
2019-06-10T17:33:09.645Z,19.78
2019-06-10T17:36:14.889Z,19.76
2019-06-10T17:39:21.270Z,19.48
2019-06-10T17:42:30.606Z,19.61
2019-06-10T17:45:33.870Z,19.32
2019-06-10T17:48:40.137Z,19.19
2019-06-10T17:51:45.326Z,19.17
2019-06-10T17:54:52.570Z,19.13
2019-06-10T17:57:57.515Z,19.19
2019-06-10T18:01:02.734Z,19.16
2019-06-10T18:04:08.059Z,19.01
2019-06-10T18:07:13.274Z,18.90
2019-06-10T18:10:18.430Z,18.94
2019-06-10T18:13:24.706Z,18.71
2019-06-10T18:16:30.815Z,18.68
2019-06-10T18:19:37.445Z,18.53
2019-06-10T18:22:42.941Z,18.76
2019-06-10T18:25:48.149Z,18.63
2019-06-10T18:29:02.005Z,18.73
2019-06-10T18:32:00.402Z,18.87
2019-06-10T18:35:06.181Z,18.55
2019-06-10T18:38:12.739Z,18.63
2019-06-10T18:41:18.018Z,18.55
2019-06-10T18:44:26.446Z,18.47
2019-06-10T18:47:30.211Z,18.23
2019-06-10T18:50:36.677Z,18.23
2019-06-10T18:53:42.749Z,18.04
2019-06-10T18:56:48.194Z,18.17
2019-06-10T18:59:53.416Z,18.17
2019-06-10T19:03:10.248Z,18.03
2019-06-10T19:06:05.779Z,17.98
2019-06-10T19:09:12.784Z,17.85
2019-06-10T19:12:18.365Z,17.69
2019-06-10T19:15:23.954Z,17.85
2019-06-10T19:18:29.935Z,17.88
2019-06-10T19:21:36.308Z,17.64
2019-06-10T19:24:44.617Z,17.58
2019-06-10T19:27:48.522Z,17.77
2019-06-10T19:30:53.897Z,17.72
2019-06-10T19:34:03.227Z,17.70
2019-06-10T19:37:06.993Z,17.68
2019-06-10T19:40:13.673Z,17.47
2019-06-10T19:43:19.057Z,17.41
2019-06-10T19:46:24.333Z,17.25
2019-06-10T19:49:29.582Z,17.26
2019-06-10T19:52:35.289Z,17.22
2019-06-10T19:55:43.427Z,17.07
2019-06-10T19:58:47.704Z,17.09
2019-06-10T20:01:54.085Z,17.01
2019-06-10T20:05:02.074Z,16.94
2019-06-10T20:08:06.435Z,16.97
2019-06-10T20:11:12.371Z,16.93
2019-06-10T20:14:17.775Z,16.77
2019-06-10T20:17:23.036Z,16.58
2019-06-10T20:20:28.201Z,16.60
2019-06-10T20:23:33.523Z,16.47
2019-06-10T20:26:38.689Z,16.36
2019-06-10T20:29:45.649Z,16.41
2019-06-10T20:32:52.837Z,16.17
2019-06-10T20:35:57.898Z,16.06
2019-06-10T20:39:03.607Z,16.03
2019-06-10T20:42:09.810Z,16.07
2019-06-10T20:45:15.989Z,16.18
2019-06-10T20:48:24.283Z,16.25
2019-06-10T20:51:28.163Z,16.18
2019-06-10T20:54:33.428Z,16.30
2019-06-10T20:57:51.841Z,16.30
2019-06-10T21:00:51.015Z,16.31
2019-06-10T21:03:54.131Z,16.12
2019-06-10T21:07:02.493Z,15.88
2019-06-10T21:10:08.439Z,15.72
2019-06-10T21:13:13.699Z,15.61
2019-06-10T21:16:18.903Z,15.56
2019-06-10T21:19:24.102Z,15.51
2019-06-10T21:22:29.334Z,15.53
2019-06-10T21:25:34.538Z,15.28
2019-06-10T21:28:41.331Z,15.34
2019-06-10T21:31:48.494Z,15.38
2019-06-10T21:34:53.903Z,15.17
2019-06-10T21:37:59.279Z,15.24
2019-06-10T21:41:05.670Z,15.12
2019-06-10T21:44:13.177Z,14.94
2019-06-10T21:47:17.885Z,14.73
2019-06-10T21:50:23.347Z,14.93
2019-06-10T21:53:28.531Z,14.90
2019-06-10T21:56:33.806Z,14.65
2019-06-10T21:59:38.998Z,14.55
2019-06-10T22:02:45.224Z,14.67
2019-06-10T22:05:51.612Z,14.60
2019-06-10T22:08:57.084Z,14.59
2019-06-10T22:12:02.855Z,14.61
2019-06-10T22:15:08.730Z,14.63
2019-06-10T22:18:13.890Z,14.69
2019-06-10T22:21:19.087Z,14.68
2019-06-10T22:24:24.279Z,14.78
2019-06-10T22:27:29.660Z,14.77
2019-06-10T22:30:34.855Z,14.70
2019-06-10T22:33:40.090Z,14.58
2019-06-10T22:36:45.520Z,14.58
2019-06-10T22:39:52.605Z,14.51
2019-06-10T22:42:57.685Z,14.62
2019-06-10T22:46:04.036Z,14.51
2019-06-10T22:49:10.363Z,14.52
2019-06-10T22:52:15.523Z,14.59
2019-06-10T22:55:21.780Z,14.70
2019-06-10T22:58:26.999Z,14.71
2019-06-10T23:01:37.886Z,14.64
2019-06-10T23:04:39.113Z,14.75
2019-06-10T23:07:44.315Z,14.80
2019-06-10T23:10:52.835Z,14.75
2019-06-10T23:13:56.920Z,14.85
2019-06-10T23:17:03.402Z,14.83
2019-06-10T23:20:08.689Z,14.84
2019-06-10T23:23:13.916Z,14.83
2019-06-10T23:26:19.168Z,14.80
2019-06-10T23:29:24.361Z,14.90
2019-06-10T23:32:29.536Z,14.99
2019-06-10T23:35:34.726Z,14.88
2019-06-10T23:38:39.923Z,14.84
2019-06-10T23:41:45.093Z,14.92
2019-06-10T23:44:50.961Z,14.89
2019-06-10T23:47:57.734Z,14.96
2019-06-10T23:51:04.887Z,14.88
2019-06-10T23:54:12.492Z,15.15
2019-06-10T23:57:17.221Z,15.13
